Time;durP1;ratioP1;P1;durP2;ratioP2;P2;SDS_P1;SDS_P2;PMS_P1;PMS_P2;Temp;Humidity;BMP_temperature;BMP_pressure;BME280_temperature;BME280_humidity;BME280_pressure;Samples;Min_cycle;Max_cycle;Signal;HPM_P1;HPM_P2
2021/12/16 00:02:11;;;;;;;47.20;22.70;;;;;;;;;;6344549;28;20059;-61
2021/12/16 00:05:27;;;;;;;41.53;22.17;;;;;;;;;;6343790;28;20047;-61
2021/12/16 00:08:35;;;;;;;43.50;22.75;;;;;;;;;;6343681;28;20074;-61
2021/12/16 00:31:51;;;;;;;39.58;19.05;;;;;;;;;;6359576;27;20407;-61
2021/12/16 00:34:57;;;;;;;42.78;21.63;;;;;;;;;;6342687;28;20054;-60
2021/12/16 00:38:02;;;;;;;43.55;21.65;;;;;;;;;;6342546;28;20401;-60
2021/12/16 00:41:06;;;;;;;40.45;20.90;;;;;;;;;;6359734;27;20065;-61
2021/12/16 00:44:19;;;;;;;38.05;19.63;;;;;;;;;;6341835;28;20066;-61
2021/12/16 00:47:45;;;;;;;37.05;19.40;;;;;;;;;;6341544;28;20047;-61
2021/12/16 00:54:14;;;;;;;41.63;20.65;;;;;;;;;;6326192;28;20058;-60
2021/12/16 00:57:16;;;;;;;42.58;20.55;;;;;;;;;;6358626;28;20407;-61
2021/12/16 01:00:20;;;;;;;38.65;20.80;;;;;;;;;;6342891;28;20051;-61
2021/12/16 01:03:30;;;;;;;40.75;20.27;;;;;;;;;;6341955;28;20065;-61
2021/12/16 01:06:51;;;;;;;40.63;20.40;;;;;;;;;;6358889;28;20050;-61
2021/12/16 01:33:28;;;;;;;39.78;20.08;;;;;;;;;;6344100;28;20509;-61
2021/12/16 01:34:23;;;;;;;44.28;20.83;;;;;;;;;;6346903;28;20047;-61
2021/12/16 01:47:54;;;;;;;38.13;20.67;;;;;;;;;;6346135;28;20051;-61
2021/12/16 01:51:06;;;;;;;43.92;20.70;;;;;;;;;;6346332;28;20120;-61
2021/12/16 01:57:41;;;;;;;41.05;20.30;;;;;;;;;;6362131;27;20067;-61
2021/12/16 02:00:58;;;;;;;43.22;19.98;;;;;;;;;;6345711;28;20403;-61
2021/12/16 02:04:10;;;;;;;39.92;20.35;;;;;;;;;;6363078;27;20153;-60
2021/12/16 02:07:33;;;;;;;44.33;21.98;;;;;;;;;;6345851;28;20404;-61
2021/12/16 02:10:41;;;;;;;42.47;20.13;;;;;;;;;;6344656;28;20130;-61
2021/12/16 02:37:20;;;;;;;42.53;20.58;;;;;;;;;;6335015;28;20135;-61
2021/12/16 02:40:27;;;;;;;40.90;20.70;;;;;;;;;;6344025;28;20393;-61
2021/12/16 02:44:05;;;;;;;43.80;19.80;;;;;;;;;;6361562;27;20035;-61
2021/12/16 02:50:33;;;;;;;38.70;18.48;;;;;;;;;;6345348;28;20055;-61
2021/12/16 02:53:38;;;;;;;41.13;19.92;;;;;;;;;;6360957;27;20097;-61
2021/12/16 02:56:41;;;;;;;44.25;21.30;;;;;;;;;;6345909;28;20047;-61
2021/12/16 02:59:48;;;;;;;41.47;20.92;;;;;;;;;;6361903;27;20055;-61
2021/12/16 03:02:52;;;;;;;46.13;22.30;;;;;;;;;;6344147;28;20105;-61
2021/12/16 03:05:59;;;;;;;37.72;19.35;;;;;;;;;;6343643;28;20044;-60
2021/12/16 03:09:04;;;;;;;42.63;20.38;;;;;;;;;;6345945;28;20165;-60
2021/12/16 03:12:31;;;;;;;46.08;21.10;;;;;;;;;;6361566;27;20044;-60
2021/12/16 03:15:55;;;;;;;43.33;20.75;;;;;;;;;;6344368;28;20036;-60
2021/12/16 03:19:11;;;;;;;41.60;20.05;;;;;;;;;;6343313;28;20062;-60
2021/12/16 03:22:27;;;;;;;43.47;19.60;;;;;;;;;;6345456;28;20055;-60
2021/12/16 03:25:44;;;;;;;42.88;19.60;;;;;;;;;;6345399;28;20044;-60
2021/12/16 03:36:05;;;;;;;43.30;20.35;;;;;;;;;;6343357;28;20051;-60
2021/12/16 03:39:10;;;;;;;43.05;20.38;;;;;;;;;;6360872;27;20466;-61
2021/12/16 03:42:16;;;;;;;44.75;20.83;;;;;;;;;;6343638;28;20067;-61
2021/12/16 03:48:44;;;;;;;42.38;19.75;;;;;;;;;;6344150;28;20046;-62
2021/12/16 03:51:55;;;;;;;44.03;21.27;;;;;;;;;;6343371;28;20050;-62
2021/12/16 03:54:58;;;;;;;44.00;19.63;;;;;;;;;;6360480;27;20258;-60
2021/12/16 03:58:03;;;;;;;45.75;20.92;;;;;;;;;;6343300;28;20048;-60
2021/12/16 04:01:13;;;;;;;43.85;20.63;;;;;;;;;;6360620;27;20130;-60
2021/12/16 04:04:19;;;;;;;45.05;21.63;;;;;;;;;;6360014;27;20433;-60
2021/12/16 04:07:28;;;;;;;43.75;20.58;;;;;;;;;;6342138;28;20090;-60
2021/12/16 04:10:59;;;;;;;37.78;19.45;;;;;;;;;;6343232;28;20058;-61
2021/12/16 04:14:05;;;;;;;38.45;19.15;;;;;;;;;;6342811;28;20491;-60
2021/12/16 04:17:14;;;;;;;37.70;18.27;;;;;;;;;;6359200;27;20048;-61
2021/12/16 04:20:26;;;;;;;43.22;21.05;;;;;;;;;;6342480;28;20043;-61
2021/12/16 04:23:30;;;;;;;43.13;20.40;;;;;;;;;;6359221;27;20051;-62
2021/12/16 04:26:35;;;;;;;39.72;18.65;;;;;;;;;;6360020;27;20505;-60
2021/12/16 04:29:39;;;;;;;39.75;18.23;;;;;;;;;;6342497;28;20084;-60
2021/12/16 04:32:42;;;;;;;39.13;18.23;;;;;;;;;;6341591;28;20432;-60
2021/12/16 04:35:46;;;;;;;40.33;19.70;;;;;;;;;;6359803;27;20039;-60
2021/12/16 04:38:53;;;;;;;44.63;20.73;;;;;;;;;;6342766;28;20047;-61
2021/12/16 04:42:05;;;;;;;44.58;21.55;;;;;;;;;;6343018;28;20047;-60
2021/12/16 04:45:12;;;;;;;47.35;22.80;;;;;;;;;;6341750;28;20040;-61
2021/12/16 04:48:16;;;;;;;45.70;21.80;;;;;;;;;;6359078;27;20554;-60
2021/12/16 04:51:20;;;;;;;42.90;20.55;;;;;;;;;;6342205;28;20043;-60
2021/12/16 04:54:29;;;;;;;43.97;21.52;;;;;;;;;;6358369;28;20051;-60
2021/12/16 04:57:32;;;;;;;45.33;22.02;;;;;;;;;;6342048;28;20040;-60
2021/12/16 05:00:37;;;;;;;49.83;24.23;;;;;;;;;;6359170;28;20053;-59
2021/12/16 05:03:56;;;;;;;45.40;22.80;;;;;;;;;;6358646;28;20059;-60
2021/12/16 05:07:01;;;;;;;44.13;22.42;;;;;;;;;;6358297;28;20055;-60
2021/12/16 05:10:09;;;;;;;44.45;22.17;;;;;;;;;;6342307;28;20085;-60
2021/12/16 05:13:13;;;;;;;42.97;21.38;;;;;;;;;;6341871;28;20429;-61
2021/12/16 05:16:17;;;;;;;46.15;22.02;;;;;;;;;;6341958;28;20048;-60
2021/12/16 05:19:24;;;;;;;44.55;23.90;;;;;;;;;;6341624;28;20096;-60
2021/12/16 05:26:12;;;;;;;46.53;22.95;;;;;;;;;;6341740;28;20051;-60
2021/12/16 05:29:19;;;;;;;45.08;22.13;;;;;;;;;;6340878;28;20044;-60
2021/12/16 05:32:24;;;;;;;43.58;21.83;;;;;;;;;;6358591;28;20535;-60
2021/12/16 05:35:30;;;;;;;47.15;22.85;;;;;;;;;;6359044;28;20035;-60
2021/12/16 05:38:35;;;;;;;44.40;22.38;;;;;;;;;;6358695;28;20054;-60
2021/12/16 05:41:38;;;;;;;42.60;21.17;;;;;;;;;;6357756;28;20051;-60
2021/12/16 05:44:42;;;;;;;45.25;22.92;;;;;;;;;;6358940;28;20055;-60
2021/12/16 05:47:47;;;;;;;49.05;23.23;;;;;;;;;;6342680;28;20044;-60
2021/12/16 05:50:51;;;;;;;49.05;23.95;;;;;;;;;;6340472;28;20044;-60
2021/12/16 05:53:55;;;;;;;46.65;22.35;;;;;;;;;;6358323;28;20052;-60
2021/12/16 05:57:06;;;;;;;42.80;20.88;;;;;;;;;;6363177;27;20450;-60
2021/12/16 06:00:13;;;;;;;49.45;22.83;;;;;;;;;;6345916;28;20051;-60
2021/12/16 06:03:18;;;;;;;49.33;25.48;;;;;;;;;;6346212;28;20043;-60
2021/12/16 06:06:22;;;;;;;49.58;24.77;;;;;;;;;;6362789;27;20498;-62
2021/12/16 06:09:26;;;;;;;48.80;24.88;;;;;;;;;;6363350;27;20085;-60
2021/12/16 06:12:29;;;;;;;49.47;25.23;;;;;;;;;;6345560;28;20126;-60
2021/12/16 06:15:44;;;;;;;50.47;24.38;;;;;;;;;;6346700;28;20047;-60
2021/12/16 06:22:41;;;;;;;51.80;26.38;;;;;;;;;;6346700;28;20478;-60
2021/12/16 06:29:07;;;;;;;53.15;26.17;;;;;;;;;;6345829;28;20055;-62
2021/12/16 06:32:10;;;;;;;57.85;25.80;;;;;;;;;;6346996;28;20043;-61
2021/12/16 06:35:15;;;;;;;58.72;25.25;;;;;;;;;;6346353;28;20040;-62
2021/12/16 06:38:18;;;;;;;57.70;25.50;;;;;;;;;;6345446;28;20074;-61
2021/12/16 06:41:35;;;;;;;59.55;26.58;;;;;;;;;;6345029;28;20485;-61
2021/12/16 06:45:02;;;;;;;46.83;23.08;;;;;;;;;;6346431;28;20044;-61
2021/12/16 06:48:10;;;;;;;46.67;22.95;;;;;;;;;;6345483;28;20043;-61
2021/12/16 06:51:21;;;;;;;51.53;23.35;;;;;;;;;;6360389;27;20044;-61
2021/12/16 06:54:28;;;;;;;46.17;23.38;;;;;;;;;;6361691;27;20043;-61
2021/12/16 06:57:40;;;;;;;55.83;25.38;;;;;;;;;;6346353;28;20048;-61
2021/12/16 07:00:49;;;;;;;54.30;24.50;;;;;;;;;;6345871;27;20055;-61
2021/12/16 07:03:52;;;;;;;55.45;26.58;;;;;;;;;;6360776;27;20051;-61
2021/12/16 07:06:56;;;;;;;56.10;24.25;;;;;;;;;;6361826;27;20050;-61
2021/12/16 07:10:02;;;;;;;60.75;26.75;;;;;;;;;;6345850;28;20043;-61
2021/12/16 07:13:15;;;;;;;59.15;27.23;;;;;;;;;;6360676;27;20055;-61
2021/12/16 07:16:18;;;;;;;62.67;27.33;;;;;;;;;;6345621;28;20055;-61
2021/12/16 07:19:21;;;;;;;61.28;27.63;;;;;;;;;;6345623;28;20414;-61
2021/12/16 07:22:25;;;;;;;58.10;27.38;;;;;;;;;;6345247;28;20169;-61
2021/12/16 07:25:31;;;;;;;59.50;26.15;;;;;;;;;;6345012;28;20043;-61
2021/12/16 07:28:34;;;;;;;64.35;28.65;;;;;;;;;;6344302;28;20043;-60
2021/12/16 07:31:38;;;;;;;61.13;27.73;;;;;;;;;;6345280;28;20104;-61
2021/12/16 07:34:41;;;;;;;61.63;25.83;;;;;;;;;;6360048;27;20047;-61
2021/12/16 07:37:46;;;;;;;62.80;26.88;;;;;;;;;;6343829;28;20382;-62
2021/12/16 07:40:53;;;;;;;62.95;27.63;;;;;;;;;;6343963;28;20055;-61
2021/12/16 07:44:09;;;;;;;58.85;26.45;;;;;;;;;;6344809;28;20051;-62
2021/12/16 07:47:14;;;;;;;57.72;26.67;;;;;;;;;;6344139;28;20044;-61
2021/12/16 07:50:22;;;;;;;66.03;29.08;;;;;;;;;;6344969;28;20134;-61
2021/12/16 07:53:26;;;;;;;63.53;28.80;;;;;;;;;;6360596;27;20054;-62
2021/12/16 07:56:29;;;;;;;59.58;27.73;;;;;;;;;;6359483;27;20043;-62
2021/12/16 07:59:33;;;;;;;58.33;26.50;;;;;;;;;;6342991;28;20126;-62
2021/12/16 08:02:37;;;;;;;53.92;25.58;;;;;;;;;;6343282;28;20059;-62
2021/12/16 08:05:44;;;;;;;58.90;25.48;;;;;;;;;;6360169;27;20047;-61
2021/12/16 08:08:48;;;;;;;58.85;26.35;;;;;;;;;;6343669;28;20043;-60
2021/12/16 08:11:51;;;;;;;61.20;27.38;;;;;;;;;;6344878;28;20055;-60
2021/12/16 08:14:54;;;;;;;56.20;25.92;;;;;;;;;;6344295;28;20044;-61
2021/12/16 08:17:58;;;;;;;60.50;25.70;;;;;;;;;;6343110;28;20370;-61
2021/12/16 08:21:01;;;;;;;65.47;27.25;;;;;;;;;;6344248;28;20047;-61
2021/12/16 08:24:08;;;;;;;64.78;27.38;;;;;;;;;;6344247;28;20130;-61
2021/12/16 08:27:12;;;;;;;53.17;25.95;;;;;;;;;;6344524;28;20051;-61
2021/12/16 08:30:17;;;;;;;53.35;26.08;;;;;;;;;;6342026;28;20049;-61
2021/12/16 08:33:21;;;;;;;51.97;25.40;;;;;;;;;;6359826;27;20078;-61
2021/12/16 08:36:24;;;;;;;49.45;24.27;;;;;;;;;;6343822;28;20508;-60
2021/12/16 08:39:28;;;;;;;49.42;24.08;;;;;;;;;;6341888;28;20048;-60
2021/12/16 08:42:31;;;;;;;51.38;24.48;;;;;;;;;;6342627;28;20054;-60
2021/12/16 08:45:35;;;;;;;47.08;23.65;;;;;;;;;;6343858;28;20058;-60
2021/12/16 08:48:37;;;;;;;49.53;24.77;;;;;;;;;;6341476;28;20074;-61
2021/12/16 08:51:42;;;;;;;45.95;23.77;;;;;;;;;;6343402;28;20080;-61
2021/12/16 08:54:48;;;;;;;49.80;23.83;;;;;;;;;;6343477;28;20424;-61
2021/12/16 08:57:53;;;;;;;48.65;22.73;;;;;;;;;;6343488;28;20451;-60
2021/12/16 09:00:57;;;;;;;45.42;22.67;;;;;;;;;;6341660;28;20031;-61
2021/12/16 09:04:01;;;;;;;41.75;21.67;;;;;;;;;;6343547;28;20085;-60
2021/12/16 09:07:05;;;;;;;41.85;21.75;;;;;;;;;;6342284;28;20043;-60
2021/12/16 09:10:10;;;;;;;44.92;23.13;;;;;;;;;;6342555;28;20485;-61
2021/12/16 09:13:15;;;;;;;41.30;21.90;;;;;;;;;;6343561;28;20131;-60
2021/12/16 09:16:19;;;;;;;44.25;21.50;;;;;;;;;;6343650;28;20052;-60
2021/12/16 09:19:22;;;;;;;40.78;20.63;;;;;;;;;;6342131;28;20046;-60
2021/12/16 09:22:26;;;;;;;42.13;21.85;;;;;;;;;;6358192;28;20039;-61
2021/12/16 09:25:30;;;;;;;39.00;19.50;;;;;;;;;;6343453;28;20101;-60
2021/12/16 09:28:34;;;;;;;38.70;20.00;;;;;;;;;;6359135;28;20105;-60
2021/12/16 09:31:37;;;;;;;40.10;20.15;;;;;;;;;;6362216;27;20153;-59
2021/12/16 09:34:42;;;;;;;;;;;;;;;;;;6348569;28;20473;-60
2021/12/16 09:37:45;;;;;;;37.38;19.08;;;;;;;;;;6348942;28;19963;-60
2021/12/16 09:40:52;;;;;;;35.25;18.02;;;;;;;;;;6347666;28;20044;-60
2021/12/16 09:43:56;;;;;;;36.15;18.90;;;;;;;;;;6347131;28;20514;-59
2021/12/16 09:47:01;;;;;;;31.77;16.77;;;;;;;;;;6348381;28;20405;-60
2021/12/16 09:50:05;;;;;;;34.22;18.17;;;;;;;;;;6346530;28;20185;-58
2021/12/16 09:53:09;;;;;;;35.30;17.45;;;;;;;;;;6362591;27;20043;-60
2021/12/16 09:56:13;;;;;;;36.47;18.45;;;;;;;;;;6347639;28;20043;-60
2021/12/16 09:59:17;;;;;;;34.63;18.20;;;;;;;;;;6363439;27;20508;-61
2021/12/16 10:02:23;;;;;;;32.10;16.77;;;;;;;;;;6362443;27;20532;-61
2021/12/16 10:05:26;;;;;;;36.85;19.30;;;;;;;;;;6343958;28;20055;-61
2021/12/16 10:08:32;;;;;;;32.95;16.33;;;;;;;;;;6362294;27;20405;-60
2021/12/16 10:11:37;;;;;;;33.03;17.40;;;;;;;;;;6361866;27;20044;-61
2021/12/16 10:15:01;;;;;;;34.55;18.88;;;;;;;;;;6360121;27;20094;-61
2021/12/16 10:18:05;;;;;;;;;;;;;;;;;;6361522;27;20044;-61
2021/12/16 10:21:12;;;;;;;38.42;18.88;;;;;;;;;;6346100;28;19926;-62
2021/12/16 10:24:23;;;;;;;30.85;17.35;;;;;;;;;;6345614;28;20048;-61
2021/12/16 10:27:28;;;;;;;35.22;18.92;;;;;;;;;;6344304;28;20509;-62
2021/12/16 10:30:40;;;;;;;34.78;19.02;;;;;;;;;;6345886;28;20100;-61
2021/12/16 10:33:48;;;;;;;34.75;18.40;;;;;;;;;;6345748;28;20047;-61
2021/12/16 10:36:52;;;;;;;36.10;18.90;;;;;;;;;;6344509;28;20044;-61
2021/12/16 10:40:22;;;;;;;35.20;18.75;;;;;;;;;;6344487;28;20444;-63
2021/12/16 10:43:33;;;;;;;32.63;17.67;;;;;;;;;;6345832;27;20043;-62
2021/12/16 10:46:38;;;;;;;112.15;59.88;;;;;;;;;;6361221;27;20046;-61
2021/12/16 10:49:43;;;;;;;30.15;17.30;;;;;;;;;;6321820;28;20060;-62
2021/12/16 10:52:46;;;;;;;30.55;16.40;;;;;;;;;;6317843;28;20131;-62
2021/12/16 10:55:56;;;;;;;28.52;15.93;;;;;;;;;;6319510;28;20036;-61
2021/12/16 10:59:02;;;;;;;28.60;15.55;;;;;;;;;;6319188;28;20052;-61
2021/12/16 11:02:08;;;;;;;27.73;15.75;;;;;;;;;;6317248;28;20039;-61
2021/12/16 11:05:12;;;;;;;28.85;15.40;;;;;;;;;;6318477;28;20058;-61
2021/12/16 11:08:16;;;;;;;27.90;16.10;;;;;;;;;;6318892;28;20188;-61
2021/12/16 11:11:26;;;;;;;30.23;16.75;;;;;;;;;;6317917;28;20295;-61
2021/12/16 11:14:30;;;;;;;30.48;16.90;;;;;;;;;;6318519;28;20093;-61
2021/12/16 11:17:37;;;;;;;33.70;17.67;;;;;;;;;;6318921;28;20505;-61
2021/12/16 11:20:41;;;;;;;34.63;18.55;;;;;;;;;;6319636;28;20048;-60
2021/12/16 11:23:44;;;;;;;35.83;18.67;;;;;;;;;;6316148;28;20047;-60
2021/12/16 11:26:48;;;;;;;35.13;19.17;;;;;;;;;;6317781;28;20048;-61
2021/12/16 11:29:52;;;;;;;36.25;19.27;;;;;;;;;;6318794;28;20051;-60
2021/12/16 11:33:03;;;;;;;37.77;20.33;;;;;;;;;;6316393;28;20062;-60
2021/12/16 11:36:09;;;;;;;36.58;19.83;;;;;;;;;;6318206;28;20091;-61
2021/12/16 11:39:14;;;;;;;35.88;20.52;;;;;;;;;;6318844;28;20066;-61
2021/12/16 11:42:17;;;;;;;37.83;20.50;;;;;;;;;;6318445;28;20046;-61
2021/12/16 11:45:22;;;;;;;;;;;;;;;;;;6317224;28;20459;-61
2021/12/16 11:48:33;;;;;;;37.20;20.30;;;;;;;;;;6318615;28;20297;-61
2021/12/16 11:51:37;;;;;;;35.90;19.88;;;;;;;;;;6316522;28;20059;-60
2021/12/16 11:54:44;;;;;;;36.47;20.73;;;;;;;;;;6314640;28;20044;-60
2021/12/16 11:57:51;;;;;;;34.53;19.65;;;;;;;;;;6316295;28;20055;-61
2021/12/16 12:00:54;;;;;;;39.20;19.98;;;;;;;;;;6316777;28;20047;-61
2021/12/16 12:04:03;;;;;;;35.25;20.10;;;;;;;;;;6315339;28;20048;-61
2021/12/16 12:07:10;;;;;;;33.38;18.77;;;;;;;;;;6315314;28;20048;-61
2021/12/16 12:10:15;;;;;;;38.35;20.10;;;;;;;;;;6316587;28;20055;-61
2021/12/16 12:13:19;;;;;;;35.03;18.67;;;;;;;;;;6315866;28;20414;-61
2021/12/16 12:16:23;;;;;;;35.53;19.45;;;;;;;;;;6315438;28;20048;-60
2021/12/16 12:19:27;;;;;;;35.08;19.38;;;;;;;;;;6316043;28;20089;-63
2021/12/16 12:22:30;;;;;;;33.63;19.50;;;;;;;;;;6318112;28;20101;-61
2021/12/16 12:25:33;;;;;;;33.80;19.88;;;;;;;;;;6316554;28;20044;-61
2021/12/16 12:28:36;;;;;;;37.05;19.83;;;;;;;;;;6315293;28;20525;-61
2021/12/16 12:31:41;;;;;;;35.80;19.67;;;;;;;;;;6317312;28;20101;-60
2021/12/16 12:34:47;;;;;;;32.40;18.45;;;;;;;;;;6317442;28;20040;-60
2021/12/16 12:37:51;;;;;;;33.55;18.88;;;;;;;;;;6314334;28;20102;-61
2021/12/16 12:40:54;;;;;;;31.60;18.73;;;;;;;;;;6317456;28;20482;-60
2021/12/16 12:43:57;;;;;;;32.33;18.70;;;;;;;;;;6317030;28;20064;-60
2021/12/16 12:47:02;;;;;;;31.48;18.10;;;;;;;;;;6314360;28;20048;-61
2021/12/16 12:50:12;;;;;;;34.05;19.45;;;;;;;;;;6315103;28;20047;-61
2021/12/16 12:53:18;;;;;;;30.95;18.27;;;;;;;;;;6316768;28;20128;-61
2021/12/16 12:56:22;;;;;;;30.55;18.77;;;;;;;;;;6316583;28;20098;-61
2021/12/16 12:59:36;;;;;;;31.95;18.25;;;;;;;;;;6314394;28;20048;-61
2021/12/16 13:02:40;;;;;;;33.20;17.90;;;;;;;;;;6316596;28;20060;-61
2021/12/16 13:05:52;;;;;;;31.17;17.83;;;;;;;;;;6321126;28;20395;-61
2021/12/16 13:08:54;;;;;;;28.33;15.90;;;;;;;;;;6319083;28;20117;-61
2021/12/16 13:11:58;;;;;;;28.88;17.10;;;;;;;;;;6319901;28;20123;-61
2021/12/16 13:15:09;;;;;;;26.65;16.42;;;;;;;;;;6338163;28;20087;-61
2021/12/16 13:28:43;;;;;;;30.33;17.20;;;;;;;;;;6314038;28;20052;-61
2021/12/16 13:31:59;;;;;;;35.13;17.40;;;;;;;;;;6320990;28;20048;-61
2021/12/16 13:35:12;;;;;;;27.90;17.52;;;;;;;;;;6319815;28;20059;-60
2021/12/16 13:38:17;;;;;;;29.50;17.50;;;;;;;;;;6319894;28;20036;-60
2021/12/16 13:41:22;;;;;;;29.88;16.58;;;;;;;;;;6320750;28;20474;-61
2021/12/16 13:44:38;;;;;;;30.63;17.27;;;;;;;;;;6321760;28;20052;-61
2021/12/16 13:47:53;;;;;;;26.92;16.30;;;;;;;;;;6318415;28;20158;-61
2021/12/16 14:01:37;;;;;;;28.60;16.25;;;;;;;;;;6319260;28;20083;-61
2021/12/16 14:04:55;;;;;;;29.05;16.58;;;;;;;;;;6319092;28;20052;-61
2021/12/16 14:08:00;;;;;;;28.30;17.00;;;;;;;;;;6318715;28;20501;-61
2021/12/16 14:11:31;;;;;;;28.40;17.05;;;;;;;;;;6319424;28;20040;-61
2021/12/16 14:14:48;;;;;;;32.55;17.40;;;;;;;;;;6320393;28;20044;-61
2021/12/16 14:17:56;;;;;;;48.40;28.35;;;;;;;;;;6316654;28;20048;-61
2021/12/16 14:38:13;;;;;;;27.05;16.25;;;;;;;;;;6317907;28;20051;-61
2021/12/16 14:41:39;;;;;;;28.27;15.82;;;;;;;;;;6319946;28;20507;-61
2021/12/16 14:48:24;;;;;;;30.98;16.48;;;;;;;;;;6317994;28;20535;-61
2021/12/16 14:51:28;;;;;;;26.48;15.68;;;;;;;;;;6317619;28;20077;-61
2021/12/16 14:54:34;;;;;;;28.23;16.77;;;;;;;;;;6319891;28;20497;-61
2021/12/16 14:57:39;;;;;;;26.67;15.52;;;;;;;;;;6317962;28;20097;-61
2021/12/16 15:00:45;;;;;;;28.17;14.70;;;;;;;;;;6318420;28;20056;-61
2021/12/16 15:03:53;;;;;;;28.85;16.50;;;;;;;;;;6317642;28;20071;-61
2021/12/16 15:07:02;;;;;;;26.08;14.82;;;;;;;;;;6318103;28;20044;-60
2021/12/16 15:10:05;;;;;;;26.17;15.80;;;;;;;;;;6317944;28;20134;-61
2021/12/16 15:13:15;;;;;;;26.50;15.48;;;;;;;;;;6318265;28;20178;-61
2021/12/16 15:37:15;;;;;;;31.25;15.77;;;;;;;;;;6265423;28;20052;-60
2021/12/16 15:40:35;;;;;;;26.77;16.02;;;;;;;;;;6266434;28;20045;-61
2021/12/16 15:43:39;;;;;;;28.10;16.63;;;;;;;;;;6317128;28;20452;-62
2021/12/16 15:46:42;;;;;;;29.13;16.77;;;;;;;;;;6318523;28;20040;-61
2021/12/16 15:49:45;;;;;;;28.85;16.35;;;;;;;;;;6316273;28;20051;-61
2021/12/16 15:52:54;;;;;;;27.48;16.60;;;;;;;;;;6316651;28;20054;-61
2021/12/16 15:56:00;;;;;;;34.78;17.73;;;;;;;;;;6316289;28;20379;-60
2021/12/16 15:59:03;;;;;;;;;;;;;;;;;;6318484;28;20101;-60
2021/12/16 16:02:06;;;;;;;27.63;16.50;;;;;;;;;;6316480;28;19920;-61
2021/12/16 16:05:11;;;;;;;35.75;20.17;;;;;;;;;;6315764;28;20044;-60
2021/12/16 16:08:20;;;;;;;29.67;17.02;;;;;;;;;;6317116;28;20391;-60
2021/12/16 16:11:24;;;;;;;28.38;17.08;;;;;;;;;;6315653;28;20154;-60
2021/12/16 16:14:32;;;;;;;28.55;16.63;;;;;;;;;;6316332;28;20047;-61
2021/12/16 16:17:40;;;;;;;28.92;16.98;;;;;;;;;;6316978;28;20071;-61
2021/12/16 16:20:46;;;;;;;27.35;15.48;;;;;;;;;;6316872;28;20040;-61
2021/12/16 16:23:53;;;;;;;27.63;16.58;;;;;;;;;;6316608;28;20051;-60
2021/12/16 16:26:58;;;;;;;28.33;15.70;;;;;;;;;;6315357;28;20434;-61
2021/12/16 16:30:02;;;;;;;28.95;17.58;;;;;;;;;;6315767;28;20044;-60
2021/12/16 16:33:10;;;;;;;28.90;16.83;;;;;;;;;;6317063;28;20168;-60
2021/12/16 16:36:15;;;;;;;27.92;15.38;;;;;;;;;;6315962;28;20051;-61
2021/12/16 16:39:21;;;;;;;29.45;15.95;;;;;;;;;;6316682;28;20097;-60
2021/12/16 16:42:31;;;;;;;27.42;16.20;;;;;;;;;;6315833;28;20047;-60
2021/12/16 16:45:35;;;;;;;27.02;15.88;;;;;;;;;;6315938;28;20052;-60
2021/12/16 16:48:55;;;;;;;27.33;15.60;;;;;;;;;;6316000;28;20054;-60
2021/12/16 16:51:59;;;;;;;27.58;15.57;;;;;;;;;;6315430;28;20473;-61
2021/12/16 16:55:05;;;;;;;25.35;14.90;;;;;;;;;;6316914;28;20140;-60
2021/12/16 16:58:10;;;;;;;24.83;14.25;;;;;;;;;;6314056;28;20047;-61
2021/12/16 17:01:13;;;;;;;25.58;14.40;;;;;;;;;;6314864;28;20051;-61
2021/12/16 17:04:17;;;;;;;23.38;12.95;;;;;;;;;;6316486;28;20410;-60
2021/12/16 17:07:22;;;;;;;23.50;14.18;;;;;;;;;;6316704;28;20059;-60
2021/12/16 17:10:30;;;;;;;23.98;13.38;;;;;;;;;;6315177;28;20048;-60
2021/12/16 17:13:37;;;;;;;25.90;15.02;;;;;;;;;;6315701;28;20062;-61
2021/12/16 17:20:06;;;;;;;27.33;14.25;;;;;;;;;;6313652;28;20405;-60
2021/12/16 17:23:13;;;;;;;23.20;13.43;;;;;;;;;;6314482;28;20445;-60
2021/12/16 17:26:22;;;;;;;22.90;12.73;;;;;;;;;;6316290;28;20543;-60
2021/12/16 17:29:26;;;;;;;25.40;14.05;;;;;;;;;;6314753;28;20410;-60
2021/12/16 17:32:30;;;;;;;27.90;14.57;;;;;;;;;;6314905;28;20044;-60
2021/12/16 17:35:34;;;;;;;22.85;11.88;;;;;;;;;;6314995;28;20044;-61
2021/12/16 17:38:39;;;;;;;25.10;13.90;;;;;;;;;;6316391;28;20485;-60
2021/12/16 17:41:43;;;;;;;22.95;14.13;;;;;;;;;;6315049;28;20048;-60
2021/12/16 17:44:48;;;;;;;25.60;14.38;;;;;;;;;;6315754;28;20383;-60
2021/12/16 17:47:51;;;;;;;23.83;14.05;;;;;;;;;;6316029;28;20047;-60
2021/12/16 17:50:57;;;;;;;23.55;13.32;;;;;;;;;;6316906;28;20094;-60
2021/12/16 17:54:02;;;;;;;70.18;36.55;;;;;;;;;;6319313;28;20055;-61
2021/12/16 17:57:06;;;;;;;24.60;14.38;;;;;;;;;;6320679;28;20067;-62
2021/12/16 18:00:21;;;;;;;24.65;13.82;;;;;;;;;;6319550;28;20048;-60
2021/12/16 18:03:25;;;;;;;26.02;13.90;;;;;;;;;;6319477;28;20105;-62
2021/12/16 18:06:33;;;;;;;25.90;13.63;;;;;;;;;;6320469;28;20047;-60
2021/12/16 18:09:37;;;;;;;22.88;13.65;;;;;;;;;;6320729;28;20553;-60
2021/12/16 18:12:46;;;;;;;25.33;14.80;;;;;;;;;;6318727;28;20082;-61
2021/12/16 18:15:49;;;;;;;25.67;14.70;;;;;;;;;;6319305;28;20475;-61
2021/12/16 18:18:55;;;;;;;27.90;15.18;;;;;;;;;;6320171;28;20411;-62
2021/12/16 18:22:05;;;;;;;25.30;14.27;;;;;;;;;;6318549;28;20044;-62
2021/12/16 18:25:11;;;;;;;25.52;15.50;;;;;;;;;;6317444;28;20048;-61
2021/12/16 18:28:16;;;;;;;24.63;14.05;;;;;;;;;;6318103;28;20052;-61
2021/12/16 18:31:28;;;;;;;28.05;15.10;;;;;;;;;;6320268;28;20052;-61
2021/12/16 18:34:39;;;;;;;32.22;17.35;;;;;;;;;;6318739;28;20129;-60
2021/12/16 18:37:43;;;;;;;29.33;16.30;;;;;;;;;;6318515;28;20043;-61
2021/12/16 18:40:48;;;;;;;28.60;16.23;;;;;;;;;;6318315;28;20384;-62
2021/12/16 18:43:59;;;;;;;28.30;16.48;;;;;;;;;;6319829;28;20051;-61
2021/12/16 18:47:22;;;;;;;33.85;17.60;;;;;;;;;;6334865;28;20071;-61
2021/12/16 18:50:37;;;;;;;34.65;18.35;;;;;;;;;;6316425;28;20079;-61
2021/12/16 18:57:04;;;;;;;30.48;17.80;;;;;;;;;;6319097;28;20055;-62
2021/12/16 19:00:10;;;;;;;33.67;18.40;;;;;;;;;;6316917;28;20044;-62
2021/12/16 19:03:16;;;;;;;34.28;19.15;;;;;;;;;;6314907;28;20387;-61
2021/12/16 19:06:21;;;;;;;35.22;19.98;;;;;;;;;;6316021;28;20375;-61
2021/12/16 19:09:27;;;;;;;34.78;19.27;;;;;;;;;;6317134;28;20031;-61
2021/12/16 19:12:33;;;;;;;36.60;19.75;;;;;;;;;;6314885;28;20402;-61
2021/12/16 19:15:41;;;;;;;33.47;19.20;;;;;;;;;;6315001;28;20454;-61
2021/12/16 19:18:47;;;;;;;33.90;19.08;;;;;;;;;;6316561;28;20536;-61
2021/12/16 19:22:12;;;;;;;34.97;20.45;;;;;;;;;;6315050;28;20040;-60
2021/12/16 19:25:18;;;;;;;33.38;19.92;;;;;;;;;;6314898;28;20100;-62
2021/12/16 19:28:23;;;;;;;34.03;20.63;;;;;;;;;;6317052;28;20485;-62
2021/12/16 19:31:28;;;;;;;33.30;19.00;;;;;;;;;;6317400;28;20059;-62
2021/12/16 19:34:32;;;;;;;34.35;20.25;;;;;;;;;;6316707;28;20078;-62
2021/12/16 19:37:36;;;;;;;33.22;19.20;;;;;;;;;;6317258;28;20051;-62
2021/12/16 19:40:40;;;;;;;35.22;19.23;;;;;;;;;;6317102;28;20055;-62
2021/12/16 19:43:43;;;;;;;34.95;20.60;;;;;;;;;;6318273;28;20095;-62
2021/12/16 19:46:48;;;;;;;35.50;20.00;;;;;;;;;;6315373;28;20406;-62
2021/12/16 19:49:51;;;;;;;35.80;21.10;;;;;;;;;;6317898;28;20126;-62
2021/12/16 19:52:54;;;;;;;29.33;18.75;;;;;;;;;;6316739;28;20052;-62
2021/12/16 19:55:58;;;;;;;33.03;19.30;;;;;;;;;;6316960;28;20173;-62
2021/12/16 19:59:01;;;;;;;33.05;20.25;;;;;;;;;;6315612;28;20065;-62
2021/12/16 20:02:06;;;;;;;31.80;18.52;;;;;;;;;;6316715;28;20119;-62
2021/12/16 20:05:09;;;;;;;29.40;17.63;;;;;;;;;;6316439;28;20105;-62
2021/12/16 20:08:13;;;;;;;29.52;18.25;;;;;;;;;;6316088;28;20044;-62
2021/12/16 20:11:20;;;;;;;28.10;17.40;;;;;;;;;;6317499;28;20044;-62
2021/12/16 20:14:23;;;;;;;27.85;17.98;;;;;;;;;;6315420;28;20384;-62
2021/12/16 20:17:29;;;;;;;29.70;17.33;;;;;;;;;;6315085;28;20093;-62
2021/12/16 20:20:34;;;;;;;28.40;17.15;;;;;;;;;;6315705;28;20494;-62
2021/12/16 20:23:37;;;;;;;29.63;17.85;;;;;;;;;;6317796;28;20048;-62
2021/12/16 20:26:46;;;;;;;27.35;16.83;;;;;;;;;;6317123;28;20054;-62
2021/12/16 20:29:52;;;;;;;28.58;17.67;;;;;;;;;;6314150;28;20048;-62
2021/12/16 20:32:58;;;;;;;28.33;16.65;;;;;;;;;;6333068;28;20047;-62
2021/12/16 20:36:04;;;;;;;27.23;17.73;;;;;;;;;;6317374;28;20059;-62
2021/12/16 20:39:08;;;;;;;26.13;16.00;;;;;;;;;;6314845;28;20165;-62
2021/12/16 20:42:14;;;;;;;25.73;16.08;;;;;;;;;;6314878;28;20043;-62
2021/12/16 20:45:23;;;;;;;26.88;16.77;;;;;;;;;;6316369;28;20051;-62
2021/12/16 20:48:33;;;;;;;25.95;16.17;;;;;;;;;;6316754;28;20055;-62
2021/12/16 20:51:40;;;;;;;25.60;15.77;;;;;;;;;;6314234;28;20070;-62
2021/12/16 20:54:45;;;;;;;25.10;15.60;;;;;;;;;;6317165;28;20474;-62
2021/12/16 20:57:48;;;;;;;25.08;15.05;;;;;;;;;;6315582;28;20071;-62
2021/12/16 21:00:53;;;;;;;22.52;14.57;;;;;;;;;;6314204;28;20036;-62
2021/12/16 21:04:03;;;;;;;25.63;15.35;;;;;;;;;;6315869;28;20048;-62
2021/12/16 21:07:07;;;;;;;26.20;16.08;;;;;;;;;;6316062;28;20058;-63